GVNP

Details ICAO GVNP (RAI)
Name Praia Nelson Mandela Intl
Region Cape Verde
Timezone Atlantic/Cape_Verde (UTC-1.0)
Plans Departing 215
Arriving 282
Stats Elevation 324 ft / 99 m (AMSL)
Location 14.941100° -23.484700°
Runways 1
Magnetic Variation 9.711° W
Sunrise 2019-05-23 07:05:28 UTC / 2019-05-23 06:05:28 Local
Sunset 2019-05-23 19:58:44 UTC / 2019-05-23 18:58:44 Local
Advertisement - Login to hide

Runways

ID Width Length Bearing (true/mag) Surface Threshold Overrun Markings Lighting
03 148 ft / 45 m 6,896 ft / 2,102 m 21.85° / 31.56° ASPHALT 650 ft / 198 m 0 ft / 0 m PREC-APP CENTERLINE EDGE THRESHOLD MALS
21 148 ft / 45 m 6,896 ft / 2,102 m 201.85° / 211.56° ASPHALT 0 ft / 0 m 0 ft / 0 m PREC-APP CENTERLINE EDGE THRESHOLD SALS

Map

Weather


0- 5 10 15 20 25 30 35+ Temperature / °C

Clouds and Precipitation
Forecast for 2019-05-23 18:00 UTC. Updated 4 hours ago

Ground ~20,000 ft ~40,000 ft Winds

METAR

GVNP 231900Z 02017KT 9999 FEW016 25/17 Q1013 NOSIG

TAF

TAF GVNP 231700Z 2318/2424 03022KT 9999 FEW016 PROB30 TEMPO 2403/2409 02012KT

Frequencies

Tower 118.20 MHz Praia Tower
Recorded 127.70 MHz Praia ATIS
Warning: Do not use this data for real-world aviation or navigation. No guarantee of current accuracy is given.